sensor_id;sensor_type;location;lat;lon;timestamp;pressure;altitude;pressure_sealevel;temperature;humidity
10587;BME280;5341;47.606;7.576;2022-08-01T00:00:08;98893.94;;;28.29;36.26
10587;BME280;5341;47.606;7.576;2022-08-01T00:02:36;98894.50;;;28.26;36.50
10587;BME280;5341;47.606;7.576;2022-08-01T00:05:05;98894.50;;;28.26;36.59
10587;BME280;5341;47.606;7.576;2022-08-01T00:07:35;98891.22;;;28.24;36.53
10587;BME280;5341;47.606;7.576;2022-08-01T00:10:15;98897.03;;;28.23;36.64
10587;BME280;5341;47.606;7.576;2022-08-01T00:12:44;98887.72;;;28.19;36.34
10587;BME280;5341;47.606;7.576;2022-08-01T00:15:15;98886.38;;;28.16;36.02
10587;BME280;5341;47.606;7.576;2022-08-01T00:17:44;98880.34;;;28.14;36.23
10587;BME280;5341;47.606;7.576;2022-08-01T00:20:13;98883.41;;;28.13;36.60
10587;BME280;5341;47.606;7.576;2022-08-01T00:22:40;98883.69;;;28.11;36.68
10587;BME280;5341;47.606;7.576;2022-08-01T00:25:08;98888.66;;;28.09;36.33
10587;BME280;5341;47.606;7.576;2022-08-01T00:27:36;98889.75;;;28.08;36.41
10587;BME280;5341;47.606;7.576;2022-08-01T00:30:05;98896.38;;;28.07;36.78
10587;BME280;5341;47.606;7.576;2022-08-01T00:32:34;98888.72;;;28.04;37.04
10587;BME280;5341;47.606;7.576;2022-08-01T00:35:02;98888.19;;;28.02;36.98
10587;BME280;5341;47.606;7.576;2022-08-01T00:37:30;98886.06;;;27.99;36.91
10587;BME280;5341;47.606;7.576;2022-08-01T00:39:58;98891.00;;;27.97;37.02
10587;BME280;5341;47.606;7.576;2022-08-01T00:42:26;98896.78;;;27.95;36.89
10587;BME280;5341;47.606;7.576;2022-08-01T00:44:54;98894.63;;;27.92;37.31
10587;BME280;5341;47.606;7.576;2022-08-01T00:47:22;98901.53;;;27.90;37.56
10587;BME280;5341;47.606;7.576;2022-08-01T00:49:52;98898.28;;;27.88;37.34
10587;BME280;5341;47.606;7.576;2022-08-01T00:52:19;98898.53;;;27.86;37.82
10587;BME280;5341;47.606;7.576;2022-08-01T00:54:48;98903.50;;;27.84;38.04
10587;BME280;5341;47.606;7.576;2022-08-01T00:57:15;98894.75;;;27.82;37.77
10587;BME280;5341;47.606;7.576;2022-08-01T00:59:43;98894.22;;;27.80;38.04
10587;BME280;5341;47.606;7.576;2022-08-01T01:02:11;98898.09;;;27.79;38.15
10587;BME280;5341;47.606;7.576;2022-08-01T01:04:39;98895.63;;;27.78;38.32
10587;BME280;5341;47.606;7.576;2022-08-01T01:07:13;98892.34;;;27.76;38.43
10587;BME280;5341;47.606;7.576;2022-08-01T01:09:48;98900.06;;;27.73;38.41
10587;BME280;5341;47.606;7.576;2022-08-01T01:12:24;98895.97;;;27.71;38.71
10587;BME280;5341;47.606;7.576;2022-08-01T01:15:02;98901.75;;;27.69;38.82
10587;BME280;5341;47.606;7.576;2022-08-01T01:17:36;98898.47;;;27.67;38.88
10587;BME280;5341;47.606;7.576;2022-08-01T01:20:06;98905.09;;;27.66;38.98
10587;BME280;5341;47.606;7.576;2022-08-01T01:28:50;98897.72;;;27.57;38.69
10587;BME280;5341;47.606;7.576;2022-08-01T01:31:21;98897.22;;;27.55;38.90
10587;BME280;5341;47.606;7.576;2022-08-01T01:33:53;98894.22;;;27.51;38.85
10587;BME280;5341;47.606;7.576;2022-08-01T01:36:24;98897.25;;;27.50;38.97
10587;BME280;5341;47.606;7.576;2022-08-01T01:38:54;98897.00;;;27.46;38.83
10587;BME280;5341;47.606;7.576;2022-08-01T01:41:24;98900.06;;;27.44;39.05
10587;BME280;5341;47.606;7.576;2022-08-01T01:43:55;98896.78;;;27.42;38.99
10587;BME280;5341;47.606;7.576;2022-08-01T01:46:24;98899.00;;;27.40;39.37
10587;BME280;5341;47.606;7.576;2022-08-01T01:48:55;98901.22;;;27.38;39.49
10587;BME280;5341;47.606;7.576;2022-08-01T01:51:25;98900.66;;;27.36;39.69
10587;BME280;5341;47.606;7.576;2022-08-01T01:53:55;98904.53;;;27.35;39.67
10587;BME280;5341;47.606;7.576;2022-08-01T01:56:24;98897.69;;;27.33;39.85
10587;BME280;5341;47.606;7.576;2022-08-01T01:58:59;98895.53;;;27.30;39.72
10587;BME280;5341;47.606;7.576;2022-08-01T02:01:29;98899.38;;;27.29;39.75
10587;BME280;5341;47.606;7.576;2022-08-01T02:04:02;98907.09;;;27.27;39.96
10587;BME280;5341;47.606;7.576;2022-08-01T02:06:31;98910.09;;;27.25;40.06
10587;BME280;5341;47.606;7.576;2022-08-01T02:09:01;98904.06;;;27.23;40.33
10587;BME280;5341;47.606;7.576;2022-08-01T02:11:29;98905.47;;;27.21;40.36
10587;BME280;5341;47.606;7.576;2022-08-01T02:14:02;98898.66;;;27.18;40.20
10587;BME280;5341;47.606;7.576;2022-08-01T02:16:36;98902.50;;;27.17;40.24
10587;BME280;5341;47.606;7.576;2022-08-01T02:19:07;98901.41;;;27.13;40.17
10587;BME280;5341;47.606;7.576;2022-08-01T02:21:40;98902.53;;;27.12;40.55
10587;BME280;5341;47.606;7.576;2022-08-01T02:24:13;98906.97;;;27.08;40.31
10587;BME280;5341;47.606;7.576;2022-08-01T02:26:46;98896.28;;;27.06;40.89
10587;BME280;5341;47.606;7.576;2022-08-01T02:29:19;98898.19;;;27.06;40.80
10587;BME280;5341;47.606;7.576;2022-08-01T02:31:51;98902.34;;;27.03;40.63
10587;BME280;5341;47.606;7.576;2022-08-01T02:34:21;98901.78;;;27.01;41.01
10587;BME280;5341;47.606;7.576;2022-08-01T02:36:50;98909.47;;;26.99;40.71
10587;BME280;5341;47.606;7.576;2022-08-01T02:39:19;98903.72;;;26.96;40.90
10587;BME280;5341;47.606;7.576;2022-08-01T02:41:50;98904.84;;;26.95;41.24
10587;BME280;5341;47.606;7.576;2022-08-01T02:44:24;98899.94;;;26.92;40.80
10587;BME280;5341;47.606;7.576;2022-08-01T02:46:56;98902.13;;;26.90;41.21
10587;BME280;5341;47.606;7.576;2022-08-01T02:49:30;98907.06;;;26.87;41.27
10587;BME280;5341;47.606;7.576;2022-08-01T02:52:01;98899.94;;;26.86;41.57
10587;BME280;5341;47.606;7.576;2022-08-01T02:54:31;98902.44;;;26.83;41.22
10587;BME280;5341;47.606;7.576;2022-08-01T02:57:00;98905.47;;;26.81;41.18
10587;BME280;5341;47.606;7.576;2022-08-01T02:59:31;98904.94;;;26.79;41.43
10587;BME280;5341;47.606;7.576;2022-08-01T03:02:01;98900.81;;;26.77;41.52
10587;BME280;5341;47.606;7.576;2022-08-01T03:04:33;98901.13;;;26.75;41.50
10587;BME280;5341;47.606;7.576;2022-08-01T03:07:03;98897.84;;;26.73;41.54
10587;BME280;5341;47.606;7.576;2022-08-01T03:09:36;98887.44;;;26.70;41.79
10587;BME280;5341;47.606;7.576;2022-08-01T03:12:07;98895.44;;;26.67;41.89
10587;BME280;5341;47.606;7.576;2022-08-01T03:14:40;98900.34;;;26.65;41.74
10587;BME280;5341;47.606;7.576;2022-08-01T03:17:09;98894.34;;;26.63;41.67
10587;BME280;5341;47.606;7.576;2022-08-01T03:19:39;98904.78;;;26.61;41.93
10587;BME280;5341;47.606;7.576;2022-08-01T03:22:11;98903.16;;;26.60;42.05
10587;BME280;5341;47.606;7.576;2022-08-01T03:24:41;98906.19;;;26.58;42.01
10587;BME280;5341;47.606;7.576;2022-08-01T03:27:10;98900.97;;;26.56;41.71
10587;BME280;5341;47.606;7.576;2022-08-01T03:29:41;98905.09;;;26.54;41.93
10587;BME280;5341;47.606;7.576;2022-08-01T03:32:10;98902.91;;;26.51;41.88
10587;BME280;5341;47.606;7.576;2022-08-01T03:34:38;98905.13;;;26.49;42.06
10587;BME280;5341;47.606;7.576;2022-08-01T03:37:09;98908.97;;;26.48;42.10
10587;BME280;5341;47.606;7.576;2022-08-01T03:39:42;98900.22;;;26.46;42.13
10587;BME280;5341;47.606;7.576;2022-08-01T03:42:14;98913.38;;;26.44;42.22
10587;BME280;5341;47.606;7.576;2022-08-01T03:44:47;98914.78;;;26.41;42.22
10587;BME280;5341;47.606;7.576;2022-08-01T03:47:16;98917.25;;;26.38;42.58
10587;BME280;5341;47.606;7.576;2022-08-01T03:49:46;98916.69;;;26.36;42.66
10587;BME280;5341;47.606;7.576;2022-08-01T03:52:16;98911.47;;;26.34;42.62
10587;BME280;5341;47.606;7.576;2022-08-01T03:54:48;98913.97;;;26.31;42.51
10587;BME280;5341;47.606;7.576;2022-08-01T03:57:18;98913.41;;;26.28;42.42
10587;BME280;5341;47.606;7.576;2022-08-01T03:59:49;98911.25;;;26.25;42.45
10587;BME280;5341;47.606;7.576;2022-08-01T04:02:17;98909.88;;;26.23;42.37
10587;BME280;5341;47.606;7.576;2022-08-01T04:04:45;98911.28;;;26.20;42.23
10587;BME280;5341;47.606;7.576;2022-08-01T04:07:23;98903.34;;;26.19;42.28
10587;BME280;5341;47.606;7.576;2022-08-01T04:09:51;98904.97;;;26.15;42.27
10587;BME280;5341;47.606;7.576;2022-08-01T04:12:19;98914.28;;;26.14;42.21
10587;BME280;5341;47.606;7.576;2022-08-01T04:14:48;98917.31;;;26.12;42.36
10587;BME280;5341;47.606;7.576;2022-08-01T04:17:18;98916.78;;;26.10;42.25
10587;BME280;5341;47.606;7.576;2022-08-01T04:19:47;98920.09;;;26.07;42.20
10587;BME280;5341;47.606;7.576;2022-08-01T04:22:16;98918.47;;;26.06;42.37
10587;BME280;5341;47.606;7.576;2022-08-01T04:24:47;98923.66;;;26.03;42.14
10587;BME280;5341;47.606;7.576;2022-08-01T04:27:19;98919.56;;;26.00;42.56
10587;BME280;5341;47.606;7.576;2022-08-01T04:29:53;98926.97;;;25.99;42.21
10587;BME280;5341;47.606;7.576;2022-08-01T04:32:25;98925.31;;;25.98;42.19
10587;BME280;5341;47.606;7.576;2022-08-01T04:34:56;98927.53;;;25.96;42.26
10587;BME280;5341;47.606;7.576;2022-08-01T04:37:26;98932.19;;;25.96;42.25
10587;BME280;5341;47.606;7.576;2022-08-01T04:39:56;98931.66;;;25.94;42.42
10587;BME280;5341;47.606;7.576;2022-08-01T04:42:26;98937.13;;;25.94;42.50
10587;BME280;5341;47.606;7.576;2022-08-01T04:44:56;98935.50;;;25.93;42.36
10587;BME280;5341;47.606;7.576;2022-08-01T04:47:25;98933.81;;;25.92;42.10
10587;BME280;5341;47.606;7.576;2022-08-01T04:49:53;98932.19;;;25.91;42.31
10587;BME280;5341;47.606;7.576;2022-08-01T04:52:22;98931.66;;;25.89;41.93
10587;BME280;5341;47.606;7.576;2022-08-01T04:54:50;98923.44;;;25.84;41.60
10587;BME280;5341;47.606;7.576;2022-08-01T04:57:18;98928.94;;;25.79;41.54
10587;BME280;5341;47.606;7.576;2022-08-01T04:59:45;98933.88;;;25.77;41.74
10587;BME280;5341;47.606;7.576;2022-08-01T05:02:17;98938.81;;;25.75;41.49
10587;BME280;5341;47.606;7.576;2022-08-01T05:04:46;98940.72;;;25.74;41.67
10587;BME280;5341;47.606;7.576;2022-08-01T05:07:14;98935.53;;;25.73;41.58
10587;BME280;5341;47.606;7.576;2022-08-01T05:09:42;98940.72;;;25.74;41.55
10587;BME280;5341;47.606;7.576;2022-08-01T05:12:11;98942.94;;;25.72;41.44
10587;BME280;5341;47.606;7.576;2022-08-01T05:14:40;98935.81;;;25.71;41.42
10587;BME280;5341;47.606;7.576;2022-08-01T05:17:08;98938.00;;;25.69;41.44
10587;BME280;5341;47.606;7.576;2022-08-01T05:19:39;98935.00;;;25.70;41.35
10587;BME280;5341;47.606;7.576;2022-08-01T05:22:09;98942.09;;;25.72;41.35
10587;BME280;5341;47.606;7.576;2022-08-01T05:24:38;98941.00;;;25.73;41.20
10587;BME280;5341;47.606;7.576;2022-08-01T05:27:06;98944.56;;;25.73;41.26
10587;BME280;5341;47.606;7.576;2022-08-01T05:29:34;98938.56;;;25.71;41.22
10587;BME280;5341;47.606;7.576;2022-08-01T05:32:02;98942.41;;;25.70;41.28
10587;BME280;5341;47.606;7.576;2022-08-01T05:34:30;98935.22;;;25.64;41.23
10587;BME280;5341;47.606;7.576;2022-08-01T05:36:59;98941.56;;;25.59;41.43
10587;BME280;5341;47.606;7.576;2022-08-01T05:39:28;98939.63;;;25.55;41.33
10587;BME280;5341;47.606;7.576;2022-08-01T05:41:56;98944.00;;;25.40;41.57
10587;BME280;5341;47.606;7.576;2022-08-01T05:44:24;98936.38;;;25.22;41.92
10587;BME280;5341;47.606;7.576;2022-08-01T05:46:52;98942.09;;;25.10;42.26
10587;BME280;5341;47.606;7.576;2022-08-01T05:49:21;98948.09;;;25.02;42.41
10587;BME280;5341;47.606;7.576;2022-08-01T05:51:49;98939.34;;;25.05;42.42
10587;BME280;5341;47.606;7.576;2022-08-01T05:54:18;98946.22;;;25.08;42.39
10587;BME280;5341;47.606;7.576;2022-08-01T05:56:46;98947.59;;;25.10;42.25
10587;BME280;5341;47.606;7.576;2022-08-01T05:59:14;98945.09;;;25.19;42.26
10587;BME280;5341;47.606;7.576;2022-08-01T06:01:42;98946.75;;;25.25;41.94
10587;BME280;5341;47.606;7.576;2022-08-01T06:04:09;98948.94;;;25.18;41.85
10587;BME280;5341;47.606;7.576;2022-08-01T06:06:38;98945.94;;;25.15;42.01
10587;BME280;5341;47.606;7.576;2022-08-01T06:09:05;98948.09;;;25.07;42.11
10587;BME280;5341;47.606;7.576;2022-08-01T06:11:34;98950.03;;;25.07;42.29
10587;BME280;5341;47.606;7.576;2022-08-01T06:14:02;98954.16;;;25.09;42.24
10587;BME280;5341;47.606;7.576;2022-08-01T06:16:30;98942.66;;;25.18;42.17
10587;BME280;5341;47.606;7.576;2022-08-01T06:18:58;98945.09;;;25.29;41.99
10587;BME280;5341;47.606;7.576;2022-08-01T06:21:26;98949.50;;;25.40;41.82
10587;BME280;5341;47.606;7.576;2022-08-01T06:23:54;98947.84;;;25.50;41.78
10587;BME280;5341;47.606;7.576;2022-08-01T06:26:22;98951.69;;;25.59;41.62
10587;BME280;5341;47.606;7.576;2022-08-01T06:28:51;98951.09;;;25.67;41.71
10587;BME280;5341;47.606;7.576;2022-08-01T06:31:19;98949.75;;;25.75;41.30
10587;BME280;5341;47.606;7.576;2022-08-01T06:33:47;98948.69;;;25.81;41.36
10587;BME280;5341;47.606;7.576;2022-08-01T06:36:15;98950.00;;;25.88;41.39
10587;BME280;5341;47.606;7.576;2022-08-01T06:38:42;98945.34;;;25.94;41.14
10587;BME280;5341;47.606;7.576;2022-08-01T06:41:11;98942.88;;;25.97;41.05
10587;BME280;5341;47.606;7.576;2022-08-01T06:43:39;98941.22;;;25.96;41.15
10587;BME280;5341;47.606;7.576;2022-08-01T06:46:09;98936.81;;;26.00;41.38
10587;BME280;5341;47.606;7.576;2022-08-01T06:48:38;98943.13;;;26.06;41.09
10587;BME280;5341;47.606;7.576;2022-08-01T06:51:07;98940.38;;;26.01;41.44
10587;BME280;5341;47.606;7.576;2022-08-01T06:53:40;98940.09;;;26.03;41.39
10587;BME280;5341;47.606;7.576;2022-08-01T06:56:12;98932.19;;;25.96;41.66
10587;BME280;5341;47.606;7.576;2022-08-01T06:58:40;98939.06;;;25.88;41.65
10587;BME280;5341;47.606;7.576;2022-08-01T07:01:11;98934.66;;;25.92;41.93
10587;BME280;5341;47.606;7.576;2022-08-01T07:03:39;98934.09;;;26.06;41.83
10587;BME280;5341;47.606;7.576;2022-08-01T07:06:07;98931.06;;;26.07;41.53
10587;BME280;5341;47.606;7.576;2022-08-01T07:08:35;98941.22;;;26.07;41.58
10587;BME280;5341;47.606;7.576;2022-08-01T07:11:03;98935.13;;;26.15;41.33
10587;BME280;5341;47.606;7.576;2022-08-01T07:13:34;98930.44;;;26.25;41.41
10587;BME280;5341;47.606;7.576;2022-08-01T07:16:04;98935.88;;;26.41;41.20
10587;BME280;5341;47.606;7.576;2022-08-01T07:18:33;98937.75;;;26.55;41.08
10587;BME280;5341;47.606;7.576;2022-08-01T07:21:00;98931.34;;;26.65;40.80
10587;BME280;5341;47.606;7.576;2022-08-01T07:23:28;98936.25;;;26.78;40.47
10587;BME280;5341;47.606;7.576;2022-08-01T07:25:57;98931.81;;;26.82;40.29
10587;BME280;5341;47.606;7.576;2022-08-01T07:28:28;98945.28;;;26.79;39.65
10587;BME280;5341;47.606;7.576;2022-08-01T07:30:59;98931.81;;;26.82;40.06
10587;BME280;5341;47.606;7.576;2022-08-01T07:33:27;98933.97;;;26.91;39.43
10587;BME280;5341;47.606;7.576;2022-08-01T07:35:56;98930.94;;;26.87;39.37
10587;BME280;5341;47.606;7.576;2022-08-01T07:38:24;98924.63;;;26.92;39.22
10587;BME280;5341;47.606;7.576;2022-08-01T07:40:52;98926.75;;;27.05;39.52
10587;BME280;5341;47.606;7.576;2022-08-01T07:43:21;98917.81;;;27.23;39.56
10587;BME280;5341;47.606;7.576;2022-08-01T07:45:50;98923.19;;;27.38;39.09
10587;BME280;5341;47.606;7.576;2022-08-01T07:48:18;98919.50;;;27.48;39.05
10587;BME280;5341;47.606;7.576;2022-08-01T07:50:49;98915.56;;;27.59;38.81
10587;BME280;5341;47.606;7.576;2022-08-01T07:53:20;98915.72;;;27.73;38.60
10587;BME280;5341;47.606;7.576;2022-08-01T07:55:49;98911.81;;;27.79;38.27
10587;BME280;5341;47.606;7.576;2022-08-01T07:58:18;98906.22;;;27.89;38.08
10587;BME280;5341;47.606;7.576;2022-08-01T08:00:46;98906.63;;;28.01;38.13
10587;BME280;5341;47.606;7.576;2022-08-01T08:03:14;98907.63;;;28.11;37.38
10587;BME280;5341;47.606;7.576;2022-08-01T08:05:42;98905.81;;;28.25;36.97
10587;BME280;5341;47.606;7.576;2022-08-01T08:08:13;98909.94;;;28.46;37.15
10587;BME280;5341;47.606;7.576;2022-08-01T08:10:46;98910.03;;;28.60;36.97
10587;BME280;5341;47.606;7.576;2022-08-01T08:13:13;98908.53;;;28.68;36.82
10587;BME280;5341;47.606;7.576;2022-08-01T08:15:41;98903.78;;;28.73;36.30
10587;BME280;5341;47.606;7.576;2022-08-01T08:18:09;98900.34;;;28.81;36.16
10587;BME280;5341;47.606;7.576;2022-08-01T08:20:36;98894.03;;;28.81;35.59
10587;BME280;5341;47.606;7.576;2022-08-01T08:23:04;98893.44;;;28.84;35.87
10587;BME280;5341;47.606;7.576;2022-08-01T08:25:53;98893.59;;;28.93;35.80
10587;BME280;5341;47.606;7.576;2022-08-01T08:28:20;98891.72;;;29.07;35.79
10587;BME280;5341;47.606;7.576;2022-08-01T08:30:49;98892.19;;;29.28;35.73
10587;BME280;5341;47.606;7.576;2022-08-01T08:33:16;98894.69;;;29.43;35.03
10587;BME280;5341;47.606;7.576;2022-08-01T08:35:44;98895.56;;;29.57;35.13
10587;BME280;5341;47.606;7.576;2022-08-01T08:38:11;98889.78;;;29.72;35.13
10587;BME280;5341;47.606;7.576;2022-08-01T08:40:39;98896.00;;;29.92;35.11
10587;BME280;5341;47.606;7.576;2022-08-01T08:43:09;98893.06;;;30.16;34.24
10587;BME280;5341;47.606;7.576;2022-08-01T08:45:38;98900.19;;;30.44;33.44
10587;BME280;5341;47.606;7.576;2022-08-01T08:48:06;98887.91;;;30.64;33.74
10587;BME280;5341;47.606;7.576;2022-08-01T08:50:33;98890.50;;;30.83;33.10
10587;BME280;5341;47.606;7.576;2022-08-01T08:53:01;98892.09;;;30.98;32.78
10587;BME280;5341;47.606;7.576;2022-08-01T08:55:30;98903.19;;;31.20;32.35
10587;BME280;5341;47.606;7.576;2022-08-01T08:57:58;98892.94;;;31.20;32.53
10587;BME280;5341;47.606;7.576;2022-08-01T09:00:29;98900.16;;;31.30;32.19
10587;BME280;5341;47.606;7.576;2022-08-01T09:02:57;98898.38;;;31.34;32.94
10587;BME280;5341;47.606;7.576;2022-08-01T09:05:25;98896.13;;;31.36;32.94
10587;BME280;5341;47.606;7.576;2022-08-01T09:07:53;98896.66;;;31.38;33.01
10587;BME280;5341;47.606;7.576;2022-08-01T09:10:21;98888.69;;;31.45;33.07
10587;BME280;5341;47.606;7.576;2022-08-01T09:13:06;98892.25;;;31.68;32.40
10587;BME280;5341;47.606;7.576;2022-08-01T09:15:45;98898.41;;;31.65;32.27
10587;BME280;5341;47.606;7.576;2022-08-01T09:18:27;98893.38;;;31.67;31.62
10587;BME280;5341;47.606;7.576;2022-08-01T09:21:09;98888.16;;;31.66;31.64
10587;BME280;5341;47.606;7.576;2022-08-01T09:23:39;98887.84;;;31.67;31.87
10587;BME280;5341;47.606;7.576;2022-08-01T09:26:08;98893.34;;;31.90;31.79
10587;BME280;5341;47.606;7.576;2022-08-01T09:28:36;98889.69;;;32.12;31.83
10587;BME280;5341;47.606;7.576;2022-08-01T09:31:08;98889.88;;;32.24;31.48
10587;BME280;5341;47.606;7.576;2022-08-01T09:33:53;98891.72;;;32.37;32.16
10587;BME280;5341;47.606;7.576;2022-08-01T09:36:23;98891.59;;;32.51;31.88
10587;BME280;5341;47.606;7.576;2022-08-01T09:38:52;98886.53;;;32.70;31.57
10587;BME280;5341;47.606;7.576;2022-08-01T09:41:29;98887.69;;;32.78;31.25
10587;BME280;5341;47.606;7.576;2022-08-01T09:43:58;98890.47;;;32.78;31.61
10587;BME280;5341;47.606;7.576;2022-08-01T09:46:27;98883.97;;;32.82;30.61
10587;BME280;5341;47.606;7.576;2022-08-01T09:48:57;98881.50;;;32.81;29.82
10587;BME280;5341;47.606;7.576;2022-08-01T09:51:30;98880.69;;;32.80;30.65
10587;BME280;5341;47.606;7.576;2022-08-01T09:53:57;98884.47;;;32.84;30.25
10587;BME280;5341;47.606;7.576;2022-08-01T09:56:26;98884.63;;;32.88;30.23
10587;BME280;5341;47.606;7.576;2022-08-01T09:58:56;98878.91;;;32.93;30.25
10587;BME280;5341;47.606;7.576;2022-08-01T10:01:24;98873.22;;;32.98;29.96
10587;BME280;5341;47.606;7.576;2022-08-01T10:04:08;98868.47;;;33.07;30.04
10587;BME280;5341;47.606;7.576;2022-08-01T10:06:37;98867.44;;;33.29;30.46
10587;BME280;5341;47.606;7.576;2022-08-01T10:09:06;98873.13;;;33.50;30.37
10587;BME280;5341;47.606;7.576;2022-08-01T10:11:34;98862.50;;;33.61;29.94
10587;BME280;5341;47.606;7.576;2022-08-01T10:14:07;98870.94;;;33.73;30.09
10587;BME280;5341;47.606;7.576;2022-08-01T10:16:35;98858.16;;;33.89;28.82
10587;BME280;5341;47.606;7.576;2022-08-01T10:19:07;98854.03;;;34.25;28.07
10587;BME280;5341;47.606;7.576;2022-08-01T10:21:36;98854.78;;;34.63;27.61
10587;BME280;5341;47.606;7.576;2022-08-01T10:24:07;98852.81;;;34.85;27.57
10587;BME280;5341;47.606;7.576;2022-08-01T10:26:37;98845.13;;;34.90;27.81
10587;BME280;5341;47.606;7.576;2022-08-01T10:29:06;98848.75;;;35.03;27.64
10587;BME280;5341;47.606;7.576;2022-08-01T10:31:34;98838.56;;;35.07;28.03
10587;BME280;5341;47.606;7.576;2022-08-01T10:34:02;98837.19;;;35.13;27.73
10587;BME280;5341;47.606;7.576;2022-08-01T10:36:32;98835.84;;;35.32;26.85
10587;BME280;5341;47.606;7.576;2022-08-01T10:39:05;98842.75;;;35.46;26.98
10587;BME280;5341;47.606;7.576;2022-08-01T10:41:33;98833.94;;;35.57;26.52
10587;BME280;5341;47.606;7.576;2022-08-01T10:44:01;98836.63;;;35.65;26.44
10587;BME280;5341;47.606;7.576;2022-08-01T10:46:30;98833.59;;;35.58;27.06
10587;BME280;5341;47.606;7.576;2022-08-01T10:49:01;98830.25;;;35.52;27.29
10587;BME280;5341;47.606;7.576;2022-08-01T10:51:31;98830.91;;;35.49;27.42
10587;BME280;5341;47.606;7.576;2022-08-01T10:54:06;98829.44;;;35.52;27.52
10587;BME280;5341;47.606;7.576;2022-08-01T10:56:39;98822.94;;;35.60;26.92
10587;BME280;5341;47.606;7.576;2022-08-01T10:59:08;98830.47;;;35.84;25.73
10587;BME280;5341;47.606;7.576;2022-08-01T11:01:35;98826.69;;;35.89;26.43
10587;BME280;5341;47.606;7.576;2022-08-01T11:04:06;98825.44;;;35.86;26.67
10587;BME280;5341;47.606;7.576;2022-08-01T11:06:48;98826.69;;;36.01;25.41
10587;BME280;5341;47.606;7.576;2022-08-01T11:09:23;98820.97;;;36.22;25.99
10587;BME280;5341;47.606;7.576;2022-08-01T11:11:58;98825.50;;;36.26;26.06
10587;BME280;5341;47.606;7.576;2022-08-01T11:14:26;98820.38;;;36.28;26.08
10587;BME280;5341;47.606;7.576;2022-08-01T11:16:53;98817.16;;;36.26;25.13
10587;BME280;5341;47.606;7.576;2022-08-01T11:19:22;98805.75;;;36.44;25.15
10587;BME280;5341;47.606;7.576;2022-08-01T11:22:00;98809.72;;;36.71;24.31
10587;BME280;5341;47.606;7.576;2022-08-01T11:24:55;98801.47;;;36.74;23.85
10587;BME280;5341;47.606;7.576;2022-08-01T11:27:28;98799.66;;;36.94;24.56
10587;BME280;5341;47.606;7.576;2022-08-01T11:30:24;98804.41;;;37.21;23.33
10587;BME280;5341;47.606;7.576;2022-08-01T11:32:56;98796.34;;;37.32;23.83
10587;BME280;5341;47.606;7.576;2022-08-01T11:35:28;98788.06;;;37.36;23.48
10587;BME280;5341;47.606;7.576;2022-08-01T11:41:13;98784.91;;;37.69;22.98
10587;BME280;5341;47.606;7.576;2022-08-01T11:43:55;98774.78;;;37.96;22.58
10587;BME280;5341;47.606;7.576;2022-08-01T11:49:31;98780.13;;;37.85;22.51
10587;BME280;5341;47.606;7.576;2022-08-01T11:52:03;98774.38;;;37.78;22.37
10587;BME280;5341;47.606;7.576;2022-08-01T11:54:35;98779.28;;;38.00;21.68
10587;BME280;5341;47.606;7.576;2022-08-01T11:57:07;98782.38;;;37.95;21.61
10587;BME280;5341;47.606;7.576;2022-08-01T11:59:40;98776.59;;;37.88;21.48
10587;BME280;5341;47.606;7.576;2022-08-01T12:02:29;98769.00;;;38.20;21.08
10587;BME280;5341;47.606;7.576;2022-08-01T12:05:04;98765.91;;;38.45;20.96
10587;BME280;5341;47.606;7.576;2022-08-01T12:07:35;98757.47;;;38.41;20.46
10587;BME280;5341;47.606;7.576;2022-08-01T12:10:04;98766.06;;;38.32;20.81
10587;BME280;5341;47.606;7.576;2022-08-01T12:12:35;98765.63;;;38.30;20.74
10587;BME280;5341;47.606;7.576;2022-08-01T12:15:05;98768.72;;;38.45;20.73
10587;BME280;5341;47.606;7.576;2022-08-01T12:17:35;98766.78;;;38.49;20.38
10587;BME280;5341;47.606;7.576;2022-08-01T12:20:07;98758.47;;;38.52;20.58
10587;BME280;5341;47.606;7.576;2022-08-01T12:22:35;98765.78;;;38.57;20.28
10587;BME280;5341;47.606;7.576;2022-08-01T12:25:07;98751.56;;;38.46;20.41
10587;BME280;5341;47.606;7.576;2022-08-01T12:27:37;98764.00;;;38.13;20.76
10587;BME280;5341;47.606;7.576;2022-08-01T12:30:07;98756.78;;;37.93;20.64
10587;BME280;5341;47.606;7.576;2022-08-01T12:32:36;98749.16;;;38.09;19.89
10587;BME280;5341;47.606;7.576;2022-08-01T12:35:05;98752.72;;;38.26;19.83
10587;BME280;5341;47.606;7.576;2022-08-01T12:37:35;98745.00;;;38.19;19.82
10587;BME280;5341;47.606;7.576;2022-08-01T12:40:10;98747.47;;;38.05;20.08
10587;BME280;5341;47.606;7.576;2022-08-01T12:42:40;98740.69;;;38.22;20.04
10587;BME280;5341;47.606;7.576;2022-08-01T12:45:08;98745.25;;;38.49;19.62
10587;BME280;5341;47.606;7.576;2022-08-01T12:47:37;98742.28;;;38.61;20.40
10587;BME280;5341;47.606;7.576;2022-08-01T12:50:06;98740.00;;;38.86;19.67
10587;BME280;5341;47.606;7.576;2022-08-01T12:52:35;98744.78;;;38.86;19.07
10587;BME280;5341;47.606;7.576;2022-08-01T12:55:09;98740.13;;;38.71;19.37
10587;BME280;5341;47.606;7.576;2022-08-01T12:57:40;98741.00;;;38.55;19.68
10587;BME280;5341;47.606;7.576;2022-08-01T13:00:11;98745.28;;;38.68;19.40
10587;BME280;5341;47.606;7.576;2022-08-01T13:02:39;98738.66;;;38.99;19.04
10587;BME280;5341;47.606;7.576;2022-08-01T13:05:09;98738.66;;;38.99;19.06
10587;BME280;5341;47.606;7.576;2022-08-01T13:07:40;98734.81;;;39.08;19.15
10587;BME280;5341;47.606;7.576;2022-08-01T13:10:09;98734.50;;;39.13;18.37
10587;BME280;5341;47.606;7.576;2022-08-01T13:12:39;98737.31;;;39.13;18.76
10587;BME280;5341;47.606;7.576;2022-08-01T13:15:22;98735.25;;;39.10;17.04
10587;BME280;5341;47.606;7.576;2022-08-01T13:17:50;98724.66;;;38.99;17.36
10587;BME280;5341;47.606;7.576;2022-08-01T13:20:22;98724.97;;;38.94;18.06
10587;BME280;5341;47.606;7.576;2022-08-01T13:22:50;98728.56;;;39.14;18.75
10587;BME280;5341;47.606;7.576;2022-08-01T13:25:18;98721.88;;;39.45;18.25
10587;BME280;5341;47.606;7.576;2022-08-01T13:27:47;98728.06;;;39.81;17.64
10587;BME280;5341;47.606;7.576;2022-08-01T13:30:16;98726.97;;;39.89;16.86
10587;BME280;5341;47.606;7.576;2022-08-01T13:32:56;98717.44;;;39.94;17.19
10587;BME280;5341;47.606;7.576;2022-08-01T13:35:24;98725.03;;;39.93;16.90
10587;BME280;5341;47.606;7.576;2022-08-01T13:37:51;98728.59;;;39.90;16.66